sensor_id;sensor_type;location;lat;lon;timestamp;pressure;altitude;pressure_sealevel;temperature;humidity
60240;BME280;46102;39.012;-7.064;2023-03-13T00:00:36;98680.31;;;14.03;87.25
60240;BME280;46102;39.012;-7.064;2023-03-13T00:02:37;98674.13;;;14.06;86.71
60240;BME280;46102;39.012;-7.064;2023-03-13T00:04:38;98683.06;;;14.03;86.89
60240;BME280;46102;39.012;-7.064;2023-03-13T00:06:39;98685.38;;;14.01;86.70
60240;BME280;46102;39.012;-7.064;2023-03-13T00:08:40;98680.06;;;13.96;86.92
60240;BME280;46102;39.012;-7.064;2023-03-13T00:10:41;98686.84;;;13.99;86.66
60240;BME280;46102;39.012;-7.064;2023-03-13T00:12:42;98696.25;;;13.98;86.56
60240;BME280;46102;39.012;-7.064;2023-03-13T00:14:43;98698.34;;;14.01;86.61
60240;BME280;46102;39.012;-7.064;2023-03-13T00:16:43;98688.34;;;13.96;86.54
60240;BME280;46102;39.012;-7.064;2023-03-13T00:18:45;98688.44;;;14.00;86.24
60240;BME280;46102;39.012;-7.064;2023-03-13T00:20:47;98691.41;;;13.94;86.59
60240;BME280;46102;39.012;-7.064;2023-03-13T00:22:49;98681.88;;;13.92;86.81
60240;BME280;46102;39.012;-7.064;2023-03-13T00:24:50;98679.91;;;13.92;86.65
60240;BME280;46102;39.012;-7.064;2023-03-13T00:26:51;98685.91;;;13.94;86.77
60240;BME280;46102;39.012;-7.064;2023-03-13T00:28:52;98684.16;;;13.90;86.79
60240;BME280;46102;39.012;-7.064;2023-03-13T00:31:05;98682.88;;;13.87;86.80
60240;BME280;46102;39.012;-7.064;2023-03-13T00:33:07;98672.50;;;13.84;86.92
60240;BME280;46102;39.012;-7.064;2023-03-13T00:35:07;98670.75;;;13.80;86.96
60240;BME280;46102;39.012;-7.064;2023-03-13T00:37:08;98675.03;;;13.68;87.50
60240;BME280;46102;39.012;-7.064;2023-03-13T00:39:09;98679.44;;;13.69;87.76
60240;BME280;46102;39.012;-7.064;2023-03-13T00:41:12;98674.09;;;13.64;87.99
60240;BME280;46102;39.012;-7.064;2023-03-13T00:43:13;98676.94;;;13.56;88.35
60240;BME280;46102;39.012;-7.064;2023-03-13T00:45:14;98667.50;;;13.57;88.69
60240;BME280;46102;39.012;-7.064;2023-03-13T00:47:15;98660.41;;;13.56;88.83
60240;BME280;46102;39.012;-7.064;2023-03-13T00:49:17;98654.88;;;13.56;88.61
60240;BME280;46102;39.012;-7.064;2023-03-13T00:51:19;98657.63;;;13.56;88.80
60240;BME280;46102;39.012;-7.064;2023-03-13T00:53:21;98664.28;;;13.54;88.57
60240;BME280;46102;39.012;-7.064;2023-03-13T00:55:22;98663.31;;;13.50;88.97
60240;BME280;46102;39.012;-7.064;2023-03-13T00:57:23;98664.81;;;13.48;88.94
60240;BME280;46102;39.012;-7.064;2023-03-13T00:59:24;98666.44;;;13.49;88.89
60240;BME280;46102;39.012;-7.064;2023-03-13T01:01:28;98671.00;;;13.45;88.98
60240;BME280;46102;39.012;-7.064;2023-03-13T01:03:29;98671.94;;;13.49;89.07
60240;BME280;46102;39.012;-7.064;2023-03-13T01:05:29;98672.00;;;13.40;89.21
60240;BME280;46102;39.012;-7.064;2023-03-13T01:07:33;98676.56;;;13.36;89.37
60240;BME280;46102;39.012;-7.064;2023-03-13T01:09:34;98674.47;;;13.33;90.02
60240;BME280;46102;39.012;-7.064;2023-03-13T01:11:37;98668.13;;;13.32;89.74
60240;BME280;46102;39.012;-7.064;2023-03-13T01:13:39;98655.19;;;13.33;89.79
60240;BME280;46102;39.012;-7.064;2023-03-13T01:15:40;98651.28;;;13.34;90.09
60240;BME280;46102;39.012;-7.064;2023-03-13T01:17:42;98650.31;;;13.30;90.33
60240;BME280;46102;39.012;-7.064;2023-03-13T01:19:43;98646.56;;;13.26;90.62
60240;BME280;46102;39.012;-7.064;2023-03-13T01:21:44;98644.00;;;13.29;90.48
60240;BME280;46102;39.012;-7.064;2023-03-13T01:23:46;98634.94;;;13.29;90.11
60240;BME280;46102;39.012;-7.064;2023-03-13T01:25:48;98629.44;;;13.29;90.01
60240;BME280;46102;39.012;-7.064;2023-03-13T01:27:49;98622.28;;;13.28;90.00
60240;BME280;46102;39.012;-7.064;2023-03-13T01:29:49;98626.16;;;13.27;89.68
60240;BME280;46102;39.012;-7.064;2023-03-13T01:31:50;98630.88;;;13.26;89.36
60240;BME280;46102;39.012;-7.064;2023-03-13T01:33:54;98638.81;;;13.28;88.77
60240;BME280;46102;39.012;-7.064;2023-03-13T01:36:02;98642.06;;;13.30;89.48
60240;BME280;46102;39.012;-7.064;2023-03-13T01:38:04;98632.81;;;13.26;90.22
60240;BME280;46102;39.012;-7.064;2023-03-13T01:40:05;98633.78;;;13.30;90.25
60240;BME280;46102;39.012;-7.064;2023-03-13T01:42:06;98644.81;;;13.30;90.24
60240;BME280;46102;39.012;-7.064;2023-03-13T01:44:21;98652.09;;;13.26;90.17
60240;BME280;46102;39.012;-7.064;2023-03-13T01:46:24;98643.34;;;13.24;89.95
60240;BME280;46102;39.012;-7.064;2023-03-13T01:48:42;98646.28;;;13.19;90.17
60240;BME280;46102;39.012;-7.064;2023-03-13T01:50:46;98649.25;;;13.13;90.27
60240;BME280;46102;39.012;-7.064;2023-03-13T01:52:56;98641.66;;;13.10;89.98
60240;BME280;46102;39.012;-7.064;2023-03-13T01:55:06;98644.41;;;13.10;90.18
60240;BME280;46102;39.012;-7.064;2023-03-13T01:57:34;98638.06;;;13.10;90.63
60240;BME280;46102;39.012;-7.064;2023-03-13T01:59:43;98638.91;;;13.10;90.37
60240;BME280;46102;39.012;-7.064;2023-03-13T02:01:48;98649.25;;;13.13;90.59
60240;BME280;46102;39.012;-7.064;2023-03-13T02:03:50;98656.53;;;13.18;90.35
60240;BME280;46102;39.012;-7.064;2023-03-13T02:05:52;98656.53;;;13.18;90.52
60240;BME280;46102;39.012;-7.064;2023-03-13T02:07:57;98654.44;;;13.15;90.13
60240;BME280;46102;39.012;-7.064;2023-03-13T02:10:00;98658.13;;;13.19;90.34
60240;BME280;46102;39.012;-7.064;2023-03-13T02:12:14;98665.28;;;13.11;90.33
60240;BME280;46102;39.012;-7.064;2023-03-13T02:14:17;98656.53;;;13.18;90.02
60240;BME280;46102;39.012;-7.064;2023-03-13T02:16:20;98655.28;;;13.07;90.71
60240;BME280;46102;39.012;-7.064;2023-03-13T02:18:22;98652.53;;;13.07;90.73
60240;BME280;46102;39.012;-7.064;2023-03-13T02:20:25;98654.63;;;13.01;91.05
60240;BME280;46102;39.012;-7.064;2023-03-13T02:26:36;98671.53;;;12.91;90.81
60240;BME280;46102;39.012;-7.064;2023-03-13T02:28:37;98673.81;;;12.89;90.51
60240;BME280;46102;39.012;-7.064;2023-03-13T02:30:43;98668.81;;;12.82;91.44
60240;BME280;46102;39.012;-7.064;2023-03-13T02:32:45;98661.22;;;12.79;91.02
60240;BME280;46102;39.012;-7.064;2023-03-13T02:34:47;98666.72;;;12.79;91.38
60240;BME280;46102;39.012;-7.064;2023-03-13T02:36:51;98669.63;;;12.74;91.45
60240;BME280;46102;39.012;-7.064;2023-03-13T02:38:56;98663.66;;;12.72;91.77
60240;BME280;46102;39.012;-7.064;2023-03-13T02:41:00;98659.97;;;12.68;91.95
60240;BME280;46102;39.012;-7.064;2023-03-13T02:43:09;98657.22;;;12.59;92.57
60240;BME280;46102;39.012;-7.064;2023-03-13T02:45:15;98661.28;;;12.62;92.66
60240;BME280;46102;39.012;-7.064;2023-03-13T02:47:20;98659.00;;;12.55;93.02
60240;BME280;46102;39.012;-7.064;2023-03-13T02:49:26;98651.25;;;12.48;92.77
60240;BME280;46102;39.012;-7.064;2023-03-13T02:51:33;98655.63;;;12.49;93.30
60240;BME280;46102;39.012;-7.064;2023-03-13T02:53:37;98654.19;;;12.43;93.20
60240;BME280;46102;39.012;-7.064;2023-03-13T02:55:40;98647.53;;;12.44;93.23
60240;BME280;46102;39.012;-7.064;2023-03-13T02:57:44;98643.34;;;12.38;93.79
60240;BME280;46102;39.012;-7.064;2023-03-13T02:59:45;98642.88;;;12.36;93.64
60240;BME280;46102;39.012;-7.064;2023-03-13T03:01:45;98643.69;;;12.37;93.70
60240;BME280;46102;39.012;-7.064;2023-03-13T03:03:46;98635.75;;;12.35;93.53
60240;BME280;46102;39.012;-7.064;2023-03-13T03:05:48;98631.41;;;12.25;94.24
60240;BME280;46102;39.012;-7.064;2023-03-13T03:07:49;98641.63;;;12.25;94.57
60240;BME280;46102;39.012;-7.064;2023-03-13T03:09:51;98644.69;;;12.23;94.42
60240;BME280;46102;39.012;-7.064;2023-03-13T03:11:53;98644.69;;;12.23;94.68
60240;BME280;46102;39.012;-7.064;2023-03-13T03:13:54;98652.75;;;12.28;94.72
60240;BME280;46102;39.012;-7.064;2023-03-13T03:15:55;98653.25;;;12.22;94.72
60240;BME280;46102;39.012;-7.064;2023-03-13T03:17:56;98659.41;;;12.10;95.54
60240;BME280;46102;39.012;-7.064;2023-03-13T03:19:57;98646.94;;;12.13;95.45
60240;BME280;46102;39.012;-7.064;2023-03-13T03:21:58;98653.44;;;12.08;95.43
60240;BME280;46102;39.012;-7.064;2023-03-13T03:23:59;98637.91;;;12.03;96.13
60240;BME280;46102;39.012;-7.064;2023-03-13T03:26:01;98646.63;;;11.97;96.65
60240;BME280;46102;39.012;-7.064;2023-03-13T03:28:04;98643.25;;;11.91;97.17
60240;BME280;46102;39.012;-7.064;2023-03-13T03:30:06;98641.78;;;11.94;97.33
60240;BME280;46102;39.012;-7.064;2023-03-13T03:32:09;98636.13;;;11.90;97.24
60240;BME280;46102;39.012;-7.064;2023-03-13T03:34:10;98643.56;;;11.90;96.97
60240;BME280;46102;39.012;-7.064;2023-03-13T03:36:13;98650.19;;;11.88;96.94
60240;BME280;46102;39.012;-7.064;2023-03-13T03:38:15;98642.25;;;11.78;97.39
60240;BME280;46102;39.012;-7.064;2023-03-13T03:40:16;98639.00;;;11.76;97.65
60240;BME280;46102;39.012;-7.064;2023-03-13T03:42:18;98633.50;;;11.76;97.52
60240;BME280;46102;39.012;-7.064;2023-03-13T03:44:19;98640.63;;;11.69;98.13
60240;BME280;46102;39.012;-7.064;2023-03-13T03:46:27;98634.28;;;11.59;98.72
60240;BME280;46102;39.012;-7.064;2023-03-13T03:48:29;98631.22;;;11.52;99.36
60240;BME280;46102;39.012;-7.064;2023-03-13T03:50:30;98632.38;;;11.51;99.91
60240;BME280;46102;39.012;-7.064;2023-03-13T03:52:34;98630.25;;;11.57;99.33
60240;BME280;46102;39.012;-7.064;2023-03-13T03:54:35;98627.19;;;11.50;99.77
60240;BME280;46102;39.012;-7.064;2023-03-13T03:56:36;98617.97;;;11.45;99.96
60240;BME280;46102;39.012;-7.064;2023-03-13T03:58:38;98617.47;;;11.43;99.67
60240;BME280;46102;39.012;-7.064;2023-03-13T04:00:55;98617.66;;;11.47;99.47
60240;BME280;46102;39.012;-7.064;2023-03-13T04:02:57;98616.84;;;11.46;99.28
60240;BME280;46102;39.012;-7.064;2023-03-13T04:04:57;98619.09;;;11.44;99.68
60240;BME280;46102;39.012;-7.064;2023-03-13T04:07:04;98621.66;;;11.41;99.95
60240;BME280;46102;39.012;-7.064;2023-03-13T04:09:06;98616.53;;;11.39;100.00
60240;BME280;46102;39.012;-7.064;2023-03-13T04:11:10;98620.69;;;11.37;100.00
60240;BME280;46102;39.012;-7.064;2023-03-13T04:13:13;98621.19;;;11.39;100.00
60240;BME280;46102;39.012;-7.064;2023-03-13T04:15:14;98635.25;;;11.37;100.00
60240;BME280;46102;39.012;-7.064;2023-03-13T04:17:16;98636.38;;;11.36;100.00
60240;BME280;46102;39.012;-7.064;2023-03-13T04:19:18;98649.94;;;11.33;100.00
60240;BME280;46102;39.012;-7.064;2023-03-13T04:21:19;98646.84;;;11.25;100.00
60240;BME280;46102;39.012;-7.064;2023-03-13T04:23:26;98661.22;;;11.22;100.00
60240;BME280;46102;39.012;-7.064;2023-03-13T04:25:27;98662.81;;;11.23;100.00
60240;BME280;46102;39.012;-7.064;2023-03-13T04:27:32;98659.44;;;11.18;100.00
60240;BME280;46102;39.012;-7.064;2023-03-13T04:29:33;98655.09;;;11.17;100.00
60240;BME280;46102;39.012;-7.064;2023-03-13T04:31:49;98649.44;;;11.22;100.00
60240;BME280;46102;39.012;-7.064;2023-03-13T04:34:06;98665.28;;;11.34;100.00
60240;BME280;46102;39.012;-7.064;2023-03-13T04:36:27;98668.50;;;11.27;100.00
60240;BME280;46102;39.012;-7.064;2023-03-13T04:38:44;98668.81;;;11.25;100.00
60240;BME280;46102;39.012;-7.064;2023-03-13T04:41:03;98664.16;;;11.26;100.00
60240;BME280;46102;39.012;-7.064;2023-03-13T04:43:25;98662.22;;;11.27;100.00
60240;BME280;46102;39.012;-7.064;2023-03-13T04:45:33;98660.09;;;11.32;100.00
60240;BME280;46102;39.012;-7.064;2023-03-13T04:47:52;98657.06;;;11.34;100.00
60240;BME280;46102;39.012;-7.064;2023-03-13T04:50:11;98659.78;;;11.34;100.00
60240;BME280;46102;39.012;-7.064;2023-03-13T04:52:21;98655.28;;;11.38;100.00
60240;BME280;46102;39.012;-7.064;2023-03-13T04:54:47;98657.53;;;11.36;100.00
60240;BME280;46102;39.012;-7.064;2023-03-13T04:57:12;98649.63;;;11.34;100.00
60240;BME280;46102;39.012;-7.064;2023-03-13T04:59:21;98640.88;;;11.32;100.00
60240;BME280;46102;39.012;-7.064;2023-03-13T05:01:41;98634.28;;;11.33;100.00
60240;BME280;46102;39.012;-7.064;2023-03-13T05:03:42;98645.25;;;11.33;100.00
60240;BME280;46102;39.012;-7.064;2023-03-13T05:05:50;98646.06;;;11.34;100.00
60240;BME280;46102;39.012;-7.064;2023-03-13T05:08:09;98652.81;;;11.28;100.00
60240;BME280;46102;39.012;-7.064;2023-03-13T05:10:20;98647.97;;;11.24;100.00
60240;BME280;46102;39.012;-7.064;2023-03-13T05:12:42;98657.03;;;11.25;100.00
60240;BME280;46102;39.012;-7.064;2023-03-13T05:15:01;98653.47;;;11.24;100.00
60240;BME280;46102;39.012;-7.064;2023-03-13T05:17:20;98650.88;;;11.19;100.00
60240;BME280;46102;39.012;-7.064;2023-03-13T05:19:34;98642.47;;;11.16;100.00
60240;BME280;46102;39.012;-7.064;2023-03-13T05:21:53;98642.47;;;11.16;100.00
60240;BME280;46102;39.012;-7.064;2023-03-13T05:24:12;98648.13;;;11.19;100.00
60240;BME280;46102;39.012;-7.064;2023-03-13T05:26:33;98643.44;;;11.20;99.68
60240;BME280;46102;39.012;-7.064;2023-03-13T05:29:00;98640.69;;;11.20;99.20
60240;BME280;46102;39.012;-7.064;2023-03-13T05:31:25;98649.91;;;11.15;99.50
60240;BME280;46102;39.012;-7.064;2023-03-13T05:33:26;98651.34;;;11.13;100.00
60240;BME280;46102;39.012;-7.064;2023-03-13T05:35:39;98670.06;;;11.11;100.00
60240;BME280;46102;39.012;-7.064;2023-03-13T05:37:54;98670.06;;;11.11;99.86
60240;BME280;46102;39.012;-7.064;2023-03-13T05:40:10;98655.06;;;11.08;99.54
60240;BME280;46102;39.012;-7.064;2023-03-13T05:42:20;98659.72;;;11.08;99.53
60240;BME280;46102;39.012;-7.064;2023-03-13T05:44:42;98655.34;;;11.07;98.85
60240;BME280;46102;39.012;-7.064;2023-03-13T05:46:42;98645.81;;;11.04;98.95
60240;BME280;46102;39.012;-7.064;2023-03-13T05:49:02;98645.16;;;10.98;99.23
60240;BME280;46102;39.012;-7.064;2023-03-13T05:51:23;98637.56;;;10.95;99.37
60240;BME280;46102;39.012;-7.064;2023-03-13T05:53:37;98633.22;;;10.94;99.04
60240;BME280;46102;39.012;-7.064;2023-03-13T05:55:46;98626.09;;;10.93;98.72
60240;BME280;46102;39.012;-7.064;2023-03-13T05:58:10;98622.53;;;10.93;98.74
60240;BME280;46102;39.012;-7.064;2023-03-13T06:00:22;98636.75;;;10.95;98.54
60240;BME280;46102;39.012;-7.064;2023-03-13T06:02:41;98638.06;;;10.97;98.90
60240;BME280;46102;39.012;-7.064;2023-03-13T06:04:46;98636.91;;;10.98;98.94
60240;BME280;46102;39.012;-7.064;2023-03-13T06:06:46;98636.59;;;11.00;98.81
60240;BME280;46102;39.012;-7.064;2023-03-13T06:08:51;98634.66;;;11.00;98.63
60240;BME280;46102;39.012;-7.064;2023-03-13T06:10:53;98631.09;;;11.00;98.37
60240;BME280;46102;39.012;-7.064;2023-03-13T06:12:55;98648.38;;;11.00;98.20
60240;BME280;46102;39.012;-7.064;2023-03-13T06:14:58;98661.00;;;11.01;98.03
60240;BME280;46102;39.012;-7.064;2023-03-13T06:17:23;98665.00;;;10.95;98.03
60240;BME280;46102;39.012;-7.064;2023-03-13T06:19:25;98662.72;;;10.89;97.93
60240;BME280;46102;39.012;-7.064;2023-03-13T06:21:25;98660.44;;;10.82;98.33
60240;BME280;46102;39.012;-7.064;2023-03-13T06:23:27;98656.69;;;10.78;98.98
60240;BME280;46102;39.012;-7.064;2023-03-13T06:25:27;98655.88;;;10.77;99.06
60240;BME280;46102;39.012;-7.064;2023-03-13T06:27:28;98663.81;;;10.79;99.18
60240;BME280;46102;39.012;-7.064;2023-03-13T06:29:29;98665.41;;;10.80;99.15
60240;BME280;46102;39.012;-7.064;2023-03-13T06:31:30;98663.97;;;10.82;98.92
60240;BME280;46102;39.012;-7.064;2023-03-13T06:33:32;98667.22;;;10.84;98.90
60240;BME280;46102;39.012;-7.064;2023-03-13T06:35:33;98669.50;;;10.91;99.44
60240;BME280;46102;39.012;-7.064;2023-03-13T06:37:33;98672.09;;;10.88;99.72
60240;BME280;46102;39.012;-7.064;2023-03-13T06:39:35;98669.81;;;10.90;99.83
60240;BME280;46102;39.012;-7.064;2023-03-13T06:41:35;98678.53;;;10.92;99.89
60240;BME280;46102;39.012;-7.064;2023-03-13T06:43:36;98679.03;;;10.94;99.77
60240;BME280;46102;39.012;-7.064;2023-03-13T06:45:40;98672.09;;;10.96;99.72
60240;BME280;46102;39.012;-7.064;2023-03-13T06:47:40;98675.03;;;11.00;99.70
60240;BME280;46102;39.012;-7.064;2023-03-13T06:49:41;98675.03;;;11.00;99.92
60240;BME280;46102;39.012;-7.064;2023-03-13T06:51:42;98685.88;;;11.05;99.42
60240;BME280;46102;39.012;-7.064;2023-03-13T06:53:43;98683.47;;;11.03;99.74
60240;BME280;46102;39.012;-7.064;2023-03-13T06:55:44;98677.97;;;11.03;99.57
60240;BME280;46102;39.012;-7.064;2023-03-13T06:57:49;98678.47;;;11.06;99.28
60240;BME280;46102;39.012;-7.064;2023-03-13T06:59:50;98689.91;;;11.08;99.20
60240;BME280;46102;39.012;-7.064;2023-03-13T07:01:51;98683.00;;;11.10;99.06
60240;BME280;46102;39.012;-7.064;2023-03-13T07:03:51;98684.44;;;11.16;98.63
60240;BME280;46102;39.012;-7.064;2023-03-13T07:05:57;98698.88;;;11.22;98.24
60240;BME280;46102;39.012;-7.064;2023-03-13T07:07:58;98693.38;;;11.22;98.25
60240;BME280;46102;39.012;-7.064;2023-03-13T07:09:59;98689.81;;;11.30;97.60
60240;BME280;46102;39.012;-7.064;2023-03-13T07:12:00;98686.13;;;11.35;97.11
60240;BME280;46102;39.012;-7.064;2023-03-13T07:14:02;98691.00;;;11.38;96.89
60240;BME280;46102;39.012;-7.064;2023-03-13T07:16:05;98685.50;;;11.38;96.62
60240;BME280;46102;39.012;-7.064;2023-03-13T07:18:07;98694.38;;;11.43;96.49
60240;BME280;46102;39.012;-7.064;2023-03-13T07:20:08;98683.75;;;11.51;95.87
60240;BME280;46102;39.012;-7.064;2023-03-13T07:22:10;98679.59;;;11.62;94.91
60240;BME280;46102;39.012;-7.064;2023-03-13T07:24:11;98689.13;;;11.73;94.59
60240;BME280;46102;39.012;-7.064;2023-03-13T07:26:14;98684.31;;;11.87;93.47
60240;BME280;46102;39.012;-7.064;2023-03-13T07:28:15;98690.63;;;11.88;93.05
60240;BME280;46102;39.012;-7.064;2023-03-13T07:30:16;98680.91;;;11.91;92.90
60240;BME280;46102;39.012;-7.064;2023-03-13T07:32:17;98693.69;;;11.95;92.97
60240;BME280;46102;39.012;-7.064;2023-03-13T07:34:17;98703.72;;;12.08;92.53
60240;BME280;46102;39.012;-7.064;2023-03-13T07:36:18;98701.63;;;12.23;92.07
60240;BME280;46102;39.012;-7.064;2023-03-13T07:38:19;98710.84;;;12.36;91.26
60240;BME280;46102;39.012;-7.064;2023-03-13T07:40:20;98710.50;;;12.55;90.61
60240;BME280;46102;39.012;-7.064;2023-03-13T07:42:21;98724.38;;;12.67;89.37
60240;BME280;46102;39.012;-7.064;2023-03-13T07:44:21;98711.56;;;12.80;89.18
60240;BME280;46102;39.012;-7.064;2023-03-13T07:46:22;98705.03;;;13.02;87.75
60240;BME280;46102;39.012;-7.064;2023-03-13T07:48:28;98716.16;;;13.14;86.81
60240;BME280;46102;39.012;-7.064;2023-03-13T07:50:29;98722.13;;;13.25;85.74
60240;BME280;46102;39.012;-7.064;2023-03-13T07:52:30;98723.38;;;13.36;85.19
60240;BME280;46102;39.012;-7.064;2023-03-13T07:54:31;98719.91;;;13.48;84.70
60240;BME280;46102;39.012;-7.064;2023-03-13T07:56:31;98717.41;;;13.64;83.58
60240;BME280;46102;39.012;-7.064;2023-03-13T07:58:34;98718.16;;;13.73;82.62
60240;BME280;46102;39.012;-7.064;2023-03-13T08:00:35;98715.81;;;13.84;82.16
60240;BME280;46102;39.012;-7.064;2023-03-13T08:02:36;98712.94;;;14.01;81.00
60240;BME280;46102;39.012;-7.064;2023-03-13T08:04:37;98706.22;;;14.11;79.45
60240;BME280;46102;39.012;-7.064;2023-03-13T08:06:38;98711.66;;;14.20;79.33
60240;BME280;46102;39.012;-7.064;2023-03-13T08:08:40;98714.22;;;14.25;77.83
60240;BME280;46102;39.012;-7.064;2023-03-13T08:10:41;98715.94;;;14.29;78.45
60240;BME280;46102;39.012;-7.064;2023-03-13T08:12:41;98709.34;;;14.43;77.62
60240;BME280;46102;39.012;-7.064;2023-03-13T08:14:42;98716.13;;;14.45;77.23
60240;BME280;46102;39.012;-7.064;2023-03-13T08:16:43;98732.31;;;14.55;77.12
60240;BME280;46102;39.012;-7.064;2023-03-13T08:18:47;98724.22;;;14.50;77.08
60240;BME280;46102;39.012;-7.064;2023-03-13T08:20:48;98726.94;;;14.59;76.12
60240;BME280;46102;39.012;-7.064;2023-03-13T08:22:49;98728.31;;;14.65;75.60
60240;BME280;46102;39.012;-7.064;2023-03-13T08:24:50;98736.03;;;14.60;75.60
60240;BME280;46102;39.012;-7.064;2023-03-13T08:26:51;98737.84;;;14.55;75.92
60240;BME280;46102;39.012;-7.064;2023-03-13T08:28:53;98743.75;;;14.66;75.81
60240;BME280;46102;39.012;-7.064;2023-03-13T08:30:55;98744.47;;;14.75;75.20
60240;BME280;46102;39.012;-7.064;2023-03-13T08:32:55;98745.59;;;14.74;75.33
60240;BME280;46102;39.012;-7.064;2023-03-13T08:34:56;98744.03;;;14.86;75.57
60240;BME280;46102;39.012;-7.064;2023-03-13T08:36:57;98735.91;;;15.02;74.99
60240;BME280;46102;39.012;-7.064;2023-03-13T08:39:00;98737.06;;;15.13;74.00
60240;BME280;46102;39.012;-7.064;2023-03-13T08:41:01;98743.66;;;15.20;74.25
60240;BME280;46102;39.012;-7.064;2023-03-13T08:43:02;98743.78;;;15.36;73.59
60240;BME280;46102;39.012;-7.064;2023-03-13T08:45:04;98744.63;;;15.49;73.32
60240;BME280;46102;39.012;-7.064;2023-03-13T08:47:06;98743.13;;;15.76;72.27
60240;BME280;46102;39.012;-7.064;2023-03-13T08:49:07;98736.53;;;15.93;71.75
60240;BME280;46102;39.012;-7.064;2023-03-13T08:51:10;98736.38;;;16.14;70.49
60240;BME280;46102;39.012;-7.064;2023-03-13T08:53:11;98743.34;;;16.36;70.41
60240;BME280;46102;39.012;-7.064;2023-03-13T08:55:12;98751.81;;;16.56;69.19
60240;BME280;46102;39.012;-7.064;2023-03-13T08:57:13;98741.72;;;16.76;68.71
60240;BME280;46102;39.012;-7.064;2023-03-13T08:59:14;98747.50;;;16.99;67.31
60240;BME280;46102;39.012;-7.064;2023-03-13T09:01:16;98755.03;;;17.14;66.39
60240;BME280;46102;39.012;-7.064;2023-03-13T09:03:17;98764.41;;;17.10;65.91
60240;BME280;46102;39.012;-7.064;2023-03-13T09:05:18;98773.78;;;17.05;65.53
60240;BME280;46102;39.012;-7.064;2023-03-13T09:07:18;98764.88;;;17.12;65.59
60240;BME280;46102;39.012;-7.064;2023-03-13T09:09:19;98765.50;;;17.21;65.39
60240;BME280;46102;39.012;-7.064;2023-03-13T09:11:20;98776.88;;;17.32;65.56
60240;BME280;46102;39.012;-7.064;2023-03-13T09:13:21;98764.44;;;17.41;64.32
60240;BME280;46102;39.012;-7.064;2023-03-13T09:15:22;98763.19;;;17.39;64.19
60240;BME280;46102;39.012;-7.064;2023-03-13T09:17:23;98761.22;;;17.55;63.05
60240;BME280;46102;39.012;-7.064;2023-03-13T09:19:25;98758.63;;;17.46;63.32
60240;BME280;46102;39.012;-7.064;2023-03-13T09:21:30;98771.16;;;17.56;62.88
60240;BME280;46102;39.012;-7.064;2023-03-13T09:23:31;98766.75;;;17.87;63.27
60240;BME280;46102;39.012;-7.064;2023-03-13T09:25:31;98770.59;;;17.98;61.21
60240;BME280;46102;39.012;-7.064;2023-03-13T09:27:32;98771.06;;;17.84;62.02
60240;BME280;46102;39.012;-7.064;2023-03-13T09:29:33;98772.41;;;17.91;62.30
60240;BME280;46102;39.012;-7.064;2023-03-13T09:31:37;98767.78;;;18.14;60.53
60240;BME280;46102;39.012;-7.064;2023-03-13T09:33:39;98783.94;;;17.93;61.36
60240;BME280;46102;39.012;-7.064;2023-03-13T09:35:39;98786.91;;;17.84;61.59
60240;BME280;46102;39.012;-7.064;2023-03-13T09:37:40;98793.59;;;17.67;62.45
60240;BME280;46102;39.012;-7.064;2023-03-13T09:39:41;98796.53;;;17.58;63.14
60240;BME280;46102;39.012;-7.064;2023-03-13T09:41:48;98789.28;;;17.69;62.42
60240;BME280;46102;39.012;-7.064;2023-03-13T09:43:55;98787.41;;;17.74;61.96
60240;BME280;46102;39.012;-7.064;2023-03-13T09:46:00;98772.94;;;17.48;63.10
60240;BME280;46102;39.012;-7.064;2023-03-13T09:48:07;98761.13;;;17.67;62.78
60240;BME280;46102;39.012;-7.064;2023-03-13T09:52:18;98756.59;;;18.10;60.69
60240;BME280;46102;39.012;-7.064;2023-03-13T09:54:34;98758.41;;;18.03;60.75
60240;BME280;46102;39.012;-7.064;2023-03-13T09:56:44;98753.44;;;18.12;61.01
60240;BME280;46102;39.012;-7.064;2023-03-13T09:58:58;98759.03;;;18.31;60.45
60240;BME280;46102;39.012;-7.064;2023-03-13T10:01:03;98759.75;;;18.48;59.95
60240;BME280;46102;39.012;-7.064;2023-03-13T10:05:25;98745.16;;;18.70;58.73
60240;BME280;46102;39.012;-7.064;2023-03-13T10:07:26;98758.75;;;18.95;58.79
60240;BME280;46102;39.012;-7.064;2023-03-13T10:09:28;98758.19;;;19.28;57.12
60240;BME280;46102;39.012;-7.064;2023-03-13T10:11:40;98742.94;;;19.45;56.20
60240;BME280;46102;39.012;-7.064;2023-03-13T10:14:01;98754.06;;;19.45;56.00
60240;BME280;46102;39.012;-7.064;2023-03-13T10:16:08;98750.38;;;19.14;56.88
60240;BME280;46102;39.012;-7.064;2023-03-13T10:18:15;98757.25;;;19.21;56.85
60240;BME280;46102;39.012;-7.064;2023-03-13T10:20:25;98751.94;;;19.12;56.84
60240;BME280;46102;39.012;-7.064;2023-03-13T10:22:27;98750.63;;;19.06;57.25
60240;BME280;46102;39.012;-7.064;2023-03-13T10:24:44;98760.09;;;19.24;57.16
60240;BME280;46102;39.012;-7.064;2023-03-13T10:26:46;98749.94;;;19.35;56.28
60240;BME280;46102;39.012;-7.064;2023-03-13T10:28:47;98760.94;;;19.28;56.54
60240;BME280;46102;39.012;-7.064;2023-03-13T10:31:01;98762.06;;;19.24;57.00
60240;BME280;46102;39.012;-7.064;2023-03-13T10:35:11;98776.94;;;19.12;57.42
60240;BME280;46102;39.012;-7.064;2023-03-13T10:37:23;98768.41;;;19.24;57.26
60240;BME280;46102;39.012;-7.064;2023-03-13T10:39:28;98771.72;;;19.53;56.70
60240;BME280;46102;39.012;-7.064;2023-03-13T10:41:35;98776.75;;;19.93;56.11
60240;BME280;46102;39.012;-7.064;2023-03-13T10:43:49;98774.50;;;20.03;55.48
60240;BME280;46102;39.012;-7.064;2023-03-13T10:45:51;98773.66;;;19.99;55.61
60240;BME280;46102;39.012;-7.064;2023-03-13T10:48:00;98782.38;;;19.97;55.69
60240;BME280;46102;39.012;-7.064;2023-03-13T10:50:03;98782.38;;;19.97;55.50
60240;BME280;46102;39.012;-7.064;2023-03-13T10:52:04;98773.72;;;20.02;55.52
60240;BME280;46102;39.012;-7.064;2023-03-13T10:54:23;98782.81;;;19.99;55.39
60240;BME280;46102;39.012;-7.064;2023-03-13T10:56:29;98783.94;;;19.94;55.76
60240;BME280;46102;39.012;-7.064;2023-03-13T10:58:41;98781.78;;;19.84;56.49
60240;BME280;46102;39.012;-7.064;2023-03-13T11:00:43;98791.25;;;19.80;56.10